Time;durP1;ratioP1;P1;durP2;ratioP2;P2;SDS_P1;SDS_P2;PMS_P1;PMS_P2;Temp;Humidity;BMP_temperature;BMP_pressure;BME280_temperature;BME280_humidity;BME280_pressure;Samples;Min_cycle;Max_cycle;Signal;HPM_P1;HPM_P2
2021/06/18 00:00:23;;;;;;;10.90;8.43;;;23.60;99.90;;;;;;4999508;28;20439;-52
2021/06/18 00:02:53;;;;;;;10.60;9.63;;;23.60;99.90;;;;;;4994109;28;20491;-46
2021/06/18 00:05:22;;;;;;;11.80;9.70;;;23.60;99.90;;;;;;4993979;28;20478;-48
2021/06/18 00:07:51;;;;;;;11.17;10.00;;;23.50;99.90;;;;;;4998316;28;20592;-47
2021/06/18 00:10:21;;;;;;;10.70;9.17;;;23.40;99.90;;;;;;4998618;28;20473;-46
2021/06/18 00:12:48;;;;;;;9.83;8.77;;;23.40;99.90;;;;;;4998577;28;20469;-50
2021/06/18 00:15:19;;;;;;;10.40;9.40;;;23.30;99.90;;;;;;4997526;28;20539;-48
2021/06/18 00:17:46;;;;;;;10.13;9.30;;;23.30;99.90;;;;;;4999334;28;20944;-48
2021/06/18 00:20:14;;;;;;;11.90;10.90;;;23.20;99.90;;;;;;4998260;28;20944;-46
2021/06/18 00:22:43;;;;;;;13.00;10.47;;;23.20;99.90;;;;;;4998521;28;20524;-46
2021/06/18 00:25:13;;;;;;;11.17;9.93;;;23.20;99.90;;;;;;4998558;28;20469;-47
2021/06/18 00:27:40;;;;;;;11.40;10.30;;;23.10;99.90;;;;;;4996861;28;20529;-52
2021/06/18 00:30:09;;;;;;;11.57;10.50;;;23.00;99.90;;;;;;4998967;28;20470;-48
2021/06/18 00:32:36;;;;;;;11.57;10.47;;;23.00;99.90;;;;;;4998017;28;20465;-50
2021/06/18 00:35:03;;;;;;;11.93;10.83;;;22.90;99.90;;;;;;4986806;28;20469;-53
2021/06/18 00:37:32;;;;;;;11.73;10.60;;;22.90;99.90;;;;;;4997920;28;20502;-49
2021/06/18 00:39:59;;;;;;;12.27;11.20;;;22.90;99.90;;;;;;4998456;28;20497;-47
2021/06/18 00:42:28;;;;;;;11.60;10.70;;;22.80;99.90;;;;;;4998256;28;20951;-47
2021/06/18 00:44:55;;;;;;;12.20;10.90;;;22.90;99.90;;;;;;4998103;28;20832;-46
2021/06/18 00:47:24;;;;;;;12.80;11.37;;;22.90;99.90;;;;;;4998720;28;20469;-46
2021/06/18 00:49:52;;;;;;;12.83;10.70;;;22.90;99.90;;;;;;4997346;28;20473;-50
2021/06/18 00:52:20;;;;;;;15.13;10.40;;;22.80;99.90;;;;;;4998254;28;20443;-46
2021/06/18 00:54:48;;;;;;;15.47;11.40;;;22.80;99.90;;;;;;4997283;28;20469;-47
2021/06/18 00:57:17;;;;;;;11.87;10.67;;;22.80;99.90;;;;;;4998327;28;20480;-49
2021/06/18 00:59:47;;;;;;;11.77;10.77;;;22.80;99.90;;;;;;4998056;28;20466;-47
2021/06/18 01:02:14;;;;;;;13.83;11.73;;;22.80;99.90;;;;;;4996782;28;20469;-49
2021/06/18 01:04:42;;;;;;;11.93;10.63;;;22.70;99.90;;;;;;4995614;28;20931;-54
2021/06/18 01:07:12;;;;;;;12.83;11.57;;;22.70;99.90;;;;;;4992319;28;20497;-47
2021/06/18 01:09:47;;;;;;;13.13;11.40;;;22.70;99.90;;;;;;4998598;28;20468;-50
2021/06/18 01:12:19;;;;;;;12.47;11.20;;;22.70;99.90;;;;;;4998148;28;20464;-46
2021/06/18 01:14:58;;;;;;;12.33;11.10;;;22.60;99.90;;;;;;4997351;28;20464;-47
2021/06/18 01:17:32;;;;;;;13.43;12.23;;;22.60;99.90;;;;;;4992948;28;20767;-49
2021/06/18 01:20:31;;;;;;;11.57;10.47;;;22.60;99.90;;;;;;4997764;28;20465;-49
2021/06/18 01:23:03;;;;;;;13.93;12.40;;;22.60;99.90;;;;;;4995259;28;20507;-51
2021/06/18 01:25:44;;;;;;;13.87;12.43;;;22.60;99.90;;;;;;4996478;28;20499;-51
2021/06/18 01:28:45;;;;;;;13.53;12.23;;;22.60;99.90;;;;;;4989472;28;20835;-52
2021/06/18 01:31:18;;;;;;;15.50;11.53;;;22.50;99.90;;;;;;4937058;29;20905;-51
2021/06/18 01:33:51;;;;;;;12.47;11.17;;;22.50;99.90;;;;;;4990655;28;20481;-50
2021/06/18 01:36:20;;;;;;;12.23;11.23;;;22.50;99.90;;;;;;4996961;28;20465;-45
2021/06/18 01:38:48;;;;;;;12.43;11.43;;;22.40;99.90;;;;;;4998083;28;20555;-48
2021/06/18 01:41:19;;;;;;;12.17;11.17;;;22.40;99.90;;;;;;4997261;28;20890;-49
2021/06/18 01:43:49;;;;;;;14.33;12.87;;;22.40;99.90;;;;;;4996877;28;20773;-53
2021/06/18 01:46:22;;;;;;;15.03;12.73;;;22.30;99.90;;;;;;4997892;28;20543;-50
2021/06/18 01:48:52;;;;;;;16.53;12.47;;;22.30;99.90;;;;;;4996788;28;20465;-49
2021/06/18 01:51:20;;;;;;;13.07;11.80;;;22.30;99.90;;;;;;4997757;28;20539;-50
2021/06/18 01:53:50;;;;;;;13.77;12.27;;;22.30;99.90;;;;;;4996411;28;20949;-46
2021/06/18 01:56:19;;;;;;;15.73;12.50;;;22.30;99.90;;;;;;4997759;28;20527;-46
2021/06/18 01:58:50;;;;;;;14.20;12.80;;;22.20;99.90;;;;;;4997029;28;20829;-46
2021/06/18 02:01:21;;;;;;;13.43;12.33;;;22.20;99.90;;;;;;4997050;28;20468;-46
2021/06/18 02:03:49;;;;;;;15.17;13.33;;;22.20;99.90;;;;;;4983927;28;20531;-46
2021/06/18 02:06:17;;;;;;;19.83;14.67;;;22.20;99.90;;;;;;4995448;28;20468;-47
2021/06/18 02:08:46;;;;;;;13.57;12.37;;;22.20;99.90;;;;;;4995041;28;20496;-56
2021/06/18 02:11:15;;;;;;;15.97;13.40;;;22.20;99.90;;;;;;4997251;28;20684;-50
2021/06/18 02:13:44;;;;;;;15.43;14.00;;;22.20;99.90;;;;;;5000845;28;20465;-54
2021/06/18 02:16:15;;;;;;;14.80;13.43;;;22.20;99.90;;;;;;4998559;28;20486;-52
2021/06/18 02:18:48;;;;;;;15.43;14.03;;;22.10;99.90;;;;;;4994883;28;20954;-54
2021/06/18 02:21:16;;;;;;;15.73;14.27;;;22.10;99.90;;;;;;4997287;28;20543;-46
2021/06/18 02:23:43;;;;;;;15.20;13.83;;;22.10;99.90;;;;;;4995264;28;20473;-47
2021/06/18 02:26:11;;;;;;;16.07;13.40;;;22.10;99.90;;;;;;4997463;28;20508;-48
2021/06/18 02:28:38;;;;;;;16.10;14.53;;;22.10;99.90;;;;;;4995863;28;20494;-46
2021/06/18 02:31:06;;;;;;;14.60;13.20;;;22.00;99.90;;;;;;4997472;28;20469;-51
2021/06/18 02:33:33;;;;;;;16.10;14.70;;;22.00;99.90;;;;;;4996582;28;20850;-48
2021/06/18 02:36:02;;;;;;;16.57;15.13;;;22.00;99.90;;;;;;4997094;28;20806;-48
2021/06/18 02:38:29;;;;;;;16.20;14.70;;;22.00;99.90;;;;;;4996129;28;20478;-48
2021/06/18 02:40:56;;;;;;;18.20;16.10;;;22.00;99.90;;;;;;4995946;28;20520;-48
2021/06/18 02:43:23;;;;;;;17.20;15.60;;;22.00;99.90;;;;;;4996988;28;20469;-51
2021/06/18 02:45:50;;;;;;;15.70;14.30;;;22.00;99.90;;;;;;4996760;28;20783;-48
2021/06/18 02:48:23;;;;;;;18.50;16.60;;;22.00;99.90;;;;;;4996671;28;20527;-50
2021/06/18 02:50:56;;;;;;;15.13;14.03;;;22.00;99.90;;;;;;4996752;28;20539;-54
2021/06/18 02:53:32;;;;;;;14.77;13.53;;;22.00;99.90;;;;;;4990300;28;20508;-47
2021/06/18 02:56:04;;;;;;;16.87;15.10;;;22.00;99.90;;;;;;4997608;28;20857;-49
2021/06/18 02:58:37;;;;;;;18.10;16.37;;;22.00;99.90;;;;;;4995618;28;20500;-46
2021/06/18 03:01:05;;;;;;;15.30;14.00;;;21.90;99.90;;;;;;4997144;28;20476;-47
2021/06/18 03:03:38;;;;;;;17.57;15.77;;;21.90;99.90;;;;;;4992777;28;20889;-52
2021/06/18 03:06:07;;;;;;;16.47;14.97;;;21.90;99.90;;;;;;4997566;28;20453;-52
2021/06/18 03:08:39;;;;;;;19.00;14.67;;;21.90;99.90;;;;;;4999292;28;20948;-53
2021/06/18 03:11:08;;;;;;;15.67;13.67;;;21.90;99.90;;;;;;4999386;28;20471;-56
2021/06/18 03:13:39;;;;;;;14.97;13.57;;;21.80;99.90;;;;;;4999680;28;20459;-48
2021/06/18 03:16:09;;;;;;;15.57;14.17;;;21.80;99.90;;;;;;4998908;28;20460;-53
2021/06/18 03:18:39;;;;;;;15.07;13.87;;;21.80;99.90;;;;;;4999827;28;20563;-50
2021/06/18 03:21:08;;;;;;;17.03;15.33;;;21.80;99.90;;;;;;4999273;28;20802;-49
2021/06/18 03:23:38;;;;;;;15.17;13.77;;;21.80;99.90;;;;;;4999446;28;20468;-47
2021/06/18 03:26:06;;;;;;;15.57;14.27;;;21.80;99.90;;;;;;4999959;28;20498;-51
2021/06/18 03:28:34;;;;;;;15.50;13.93;;;21.80;99.90;;;;;;4993528;28;20475;-46
2021/06/18 03:31:07;;;;;;;16.07;14.77;;;21.70;99.90;;;;;;5000297;28;20877;-47
2021/06/18 03:33:35;;;;;;;17.20;15.53;;;21.80;99.90;;;;;;4999380;28;20500;-46
2021/06/18 03:36:02;;;;;;;15.10;13.70;;;21.80;99.90;;;;;;4999445;28;20759;-50
2021/06/18 03:38:30;;;;;;;14.47;12.97;;;21.70;99.90;;;;;;4999032;28;20519;-47
2021/06/18 03:40:58;;;;;;;17.43;15.30;;;21.70;99.90;;;;;;4999086;28;20479;-46
2021/06/18 03:43:26;;;;;;;18.93;15.03;;;21.70;99.90;;;;;;4999704;28;20479;-48
2021/06/18 03:46:01;;;;;;;16.40;15.00;;;21.70;99.90;;;;;;4998034;28;20480;-50
2021/06/18 03:48:29;;;;;;;16.80;15.13;;;21.70;99.90;;;;;;4999242;28;20482;-46
2021/06/18 03:50:56;;;;;;;17.00;15.60;;;21.60;99.90;;;;;;4998559;28;20517;-46
2021/06/18 03:53:24;;;;;;;15.73;14.47;;;21.70;99.90;;;;;;4999842;28;20964;-49
2021/06/18 03:55:51;;;;;;;16.83;15.53;;;21.70;99.90;;;;;;4998680;28;20471;-48
2021/06/18 03:58:21;;;;;;;17.90;16.30;;;21.70;99.90;;;;;;4998721;28;20917;-46
2021/06/18 04:00:51;;;;;;;17.67;16.00;;;21.70;99.90;;;;;;4999500;28;20472;-46
2021/06/18 04:03:21;;;;;;;17.47;15.87;;;21.70;99.90;;;;;;4993127;28;20468;-48
2021/06/18 04:05:50;;;;;;;18.03;16.50;;;21.70;99.90;;;;;;4996115;28;20890;-46
2021/06/18 04:08:20;;;;;;;19.00;17.00;;;21.70;99.90;;;;;;4997737;28;20776;-56
2021/06/18 04:10:47;;;;;;;17.70;15.90;;;21.70;99.90;;;;;;4999461;28;20886;-56
2021/06/18 04:13:16;;;;;;;18.07;16.50;;;21.80;99.90;;;;;;4997594;28;20473;-53
2021/06/18 04:15:46;;;;;;;18.00;16.40;;;21.90;99.90;;;;;;4997804;28;20476;-52
2021/06/18 04:18:19;;;;;;;17.13;15.63;;;21.90;99.90;;;;;;4999445;28;20475;-54
2021/06/18 04:20:46;;;;;;;16.30;14.30;;;21.90;99.90;;;;;;4997795;28;20465;-54
2021/06/18 04:23:13;;;;;;;20.27;17.30;;;22.00;99.90;;;;;;4998733;28;20543;-49
2021/06/18 04:25:40;;;;;;;18.67;16.97;;;22.10;99.90;;;;;;4997441;28;20482;-49
2021/06/18 04:28:08;;;;;;;17.23;15.93;;;22.10;99.90;;;;;;4999116;28;20862;-46
2021/06/18 04:30:35;;;;;;;18.23;16.33;;;22.20;99.90;;;;;;4998184;28;20484;-49
2021/06/18 04:33:06;;;;;;;17.13;15.60;;;22.20;99.90;;;;;;4997383;28;20472;-49
2021/06/18 04:35:35;;;;;;;16.50;15.17;;;22.30;99.90;;;;;;4999099;28;20890;-47
2021/06/18 04:38:02;;;;;;;18.30;16.47;;;22.30;99.90;;;;;;5001391;28;20471;-50
2021/06/18 04:40:29;;;;;;;18.07;16.47;;;22.30;99.90;;;;;;4998345;28;20497;-49
2021/06/18 04:42:58;;;;;;;20.23;18.13;;;22.40;99.90;;;;;;4998842;28;20793;-46
2021/06/18 04:45:28;;;;;;;19.50;17.50;;;22.50;99.90;;;;;;4997806;28;20476;-49
2021/06/18 04:47:57;;;;;;;19.20;17.67;;;22.50;99.90;;;;;;4998139;28;20480;-46
2021/06/18 04:50:26;;;;;;;19.77;17.87;;;22.60;99.90;;;;;;4998301;28;20453;-46
2021/06/18 04:52:53;;;;;;;20.07;17.83;;;22.60;99.90;;;;;;4998471;28;20464;-47
2021/06/18 04:55:21;;;;;;;19.40;17.50;;;22.60;99.90;;;;;;4997614;28;20460;-49
2021/06/18 04:57:49;;;;;;;19.83;17.70;;;22.60;99.90;;;;;;4997492;28;20457;-48
2021/06/18 05:00:18;;;;;;;21.70;17.63;;;22.60;99.90;;;;;;4995100;28;20493;-49
2021/06/18 05:02:45;;;;;;;29.63;19.63;;;22.60;99.90;;;;;;4997202;28;20781;-49
2021/06/18 05:05:12;;;;;;;19.87;17.60;;;22.70;99.90;;;;;;4992074;28;20469;-55
2021/06/18 05:07:41;;;;;;;18.50;16.83;;;22.80;99.90;;;;;;4996640;28;20507;-54
2021/06/18 05:10:11;;;;;;;22.47;19.57;;;22.90;99.90;;;;;;4997329;28;20453;-55
2021/06/18 05:12:40;;;;;;;27.17;19.13;;;22.90;99.90;;;;;;4997634;28;20549;-53
2021/06/18 05:15:10;;;;;;;22.67;20.30;;;23.00;99.90;;;;;;4996353;28;20559;-56
2021/06/18 05:17:37;;;;;;;20.30;18.30;;;23.10;99.90;;;;;;4997073;28;20993;-48
2021/06/18 05:20:10;;;;;;;21.83;19.13;;;23.20;99.90;;;;;;4997524;28;20497;-48
2021/06/18 05:22:37;;;;;;;21.47;19.57;;;23.30;99.90;;;;;;4997521;28;20897;-53
2021/06/18 05:25:06;;;;;;;19.67;18.00;;;23.40;99.90;;;;;;4997452;28;20468;-50
2021/06/18 05:27:34;;;;;;;20.00;18.30;;;23.50;99.90;;;;;;4997575;28;20968;-48
2021/06/18 05:30:01;;;;;;;22.27;20.07;;;23.60;99.90;;;;;;5000281;28;20507;-50
2021/06/18 05:32:28;;;;;;;23.80;20.80;;;23.70;99.90;;;;;;5015159;28;20463;-46
2021/06/18 05:34:55;;;;;;;21.47;19.43;;;23.90;99.90;;;;;;5017237;28;20459;-51
2021/06/18 05:37:22;;;;;;;21.07;19.17;;;23.90;99.90;;;;;;5002766;28;20447;-46
2021/06/18 05:39:49;;;;;;;26.07;18.53;;;24.10;99.90;;;;;;4997271;28;20497;-46
2021/06/18 05:42:17;;;;;;;18.53;16.83;;;24.20;99.90;;;;;;4996641;28;20491;-46
2021/06/18 05:44:44;;;;;;;19.77;16.73;;;24.40;99.90;;;;;;4997048;28;20909;-51
2021/06/18 05:47:11;;;;;;;18.33;16.53;;;24.70;99.90;;;;;;4996170;28;20519;-46
2021/06/18 05:49:41;;;;;;;18.27;16.67;;;25.00;99.90;;;;;;4996534;28;20519;-46
2021/06/18 05:52:08;;;;;;;17.20;15.63;;;25.30;99.90;;;;;;4997392;28;20480;-46
2021/06/18 05:54:35;;;;;;;18.43;16.50;;;25.60;99.90;;;;;;4996505;28;20465;-46
2021/06/18 05:57:02;;;;;;;16.30;14.73;;;25.80;99.90;;;;;;4996883;28;20473;-54
2021/06/18 05:59:31;;;;;;;16.10;14.90;;;26.00;99.90;;;;;;4996783;28;20493;-52
2021/06/18 06:01:58;;;;;;;16.97;15.40;;;26.10;99.90;;;;;;4995958;28;20890;-54
2021/06/18 06:04:25;;;;;;;16.43;15.10;;;26.10;99.90;;;;;;4987282;28;20472;-52
2021/06/18 06:06:52;;;;;;;15.30;13.90;;;26.10;99.90;;;;;;4995814;28;20867;-46
2021/06/18 06:09:19;;;;;;;18.10;14.50;;;26.40;99.90;;;;;;4995374;28;20469;-50
2021/06/18 06:11:46;;;;;;;16.07;14.77;;;26.80;99.90;;;;;;4997031;28;20480;-48
2021/06/18 06:14:17;;;;;;;14.37;13.13;;;27.00;99.90;;;;;;4995751;28;20465;-49
2021/06/18 06:16:46;;;;;;;14.90;13.70;;;27.30;99.90;;;;;;4997410;28;20527;-51
2021/06/18 06:19:13;;;;;;;15.23;13.67;;;27.60;99.90;;;;;;4995992;28;20894;-50
2021/06/18 06:21:41;;;;;;;15.03;13.70;;;27.90;99.90;;;;;;4997247;28;20472;-55
2021/06/18 06:24:09;;;;;;;14.80;13.40;;;28.10;99.90;;;;;;4997234;28;20523;-46
2021/06/18 06:26:36;;;;;;;14.57;13.20;;;28.20;99.90;;;;;;5001066;28;20447;-52
2021/06/18 06:29:04;;;;;;;13.87;12.53;;;28.20;99.90;;;;;;4997630;28;20527;-46
2021/06/18 06:31:31;;;;;;;14.83;13.43;;;28.40;99.90;;;;;;4996050;28;20473;-49
2021/06/18 06:33:59;;;;;;;13.10;12.10;;;28.60;99.90;;;;;;4996511;28;20898;-50
2021/06/18 06:36:28;;;;;;;12.97;11.80;;;28.80;99.90;;;;;;4997177;28;20491;-47
2021/06/18 06:38:55;;;;;;;13.90;12.20;;;28.80;98.30;;;;;;4999734;28;20500;-48
2021/06/18 06:41:24;;;;;;;13.53;12.13;;;28.90;99.60;;;;;;5000871;28;20467;-47
2021/06/18 06:43:51;;;;;;;13.03;11.97;;;29.10;99.00;;;;;;5001220;28;20728;-48
2021/06/18 06:46:22;;;;;;;12.20;11.23;;;29.10;98.60;;;;;;5000141;28;20490;-47
2021/06/18 06:48:49;;;;;;;12.90;11.87;;;29.30;97.30;;;;;;5001024;28;20781;-50
2021/06/18 06:51:17;;;;;;;11.97;10.90;;;29.50;95.70;;;;;;5000754;28;20461;-54
2021/06/18 06:53:44;;;;;;;11.40;10.40;;;29.30;93.70;;;;;;5001036;28;20769;-50
2021/06/18 06:56:11;;;;;;;12.27;11.07;;;29.30;94.60;;;;;;4999917;28;20472;-49
2021/06/18 06:58:39;;;;;;;12.63;11.37;;;29.70;93.00;;;;;;4996775;28;20464;-50
2021/06/18 07:01:07;;;;;;;11.97;10.80;;;29.90;91.30;;;;;;4999754;28;20471;-48
2021/06/18 07:03:38;;;;;;;13.03;10.60;;;30.10;90.00;;;;;;4993886;28;20591;-52
2021/06/18 07:06:11;;;;;;;11.63;9.40;;;30.30;86.20;;;;;;4996828;28;20910;-50
2021/06/18 07:08:39;;;;;;;11.83;10.70;;;30.30;83.80;;;;;;5000116;28;20495;-50
2021/06/18 07:11:09;;;;;;;10.93;9.70;;;30.20;80.80;;;;;;4999855;28;20524;-51
2021/06/18 07:13:36;;;;;;;12.57;11.30;;;30.00;82.40;;;;;;4994045;28;20469;-52
2021/06/18 07:16:03;;;;;;;12.50;11.33;;;30.30;82.80;;;;;;4999099;28;20889;-53
2021/06/18 07:18:30;;;;;;;12.20;11.03;;;30.50;79.90;;;;;;4998868;28;20823;-47
2021/06/18 07:20:57;;;;;;;14.73;10.90;;;30.40;80.90;;;;;;4999031;28;20489;-47
2021/06/18 07:23:24;;;;;;;15.07;11.83;;;30.50;81.50;;;;;;4999951;28;20468;-47
2021/06/18 07:25:53;;;;;;;12.93;11.73;;;30.40;79.40;;;;;;4999790;28;20810;-47
2021/06/18 07:28:25;;;;;;;13.80;12.43;;;30.40;78.30;;;;;;4999728;28;20678;-51
2021/06/18 07:30:52;;;;;;;15.10;13.73;;;30.40;81.70;;;;;;5000405;28;20465;-49
2021/06/18 07:33:19;;;;;;;20.90;13.03;;;30.70;80.40;;;;;;5000037;28;20469;-49
2021/06/18 07:35:49;;;;;;;13.97;12.60;;;30.90;80.30;;;;;;4999864;28;20473;-48
2021/06/18 07:38:19;;;;;;;14.33;12.20;;;31.30;78.60;;;;;;4999951;28;20469;-56
2021/06/18 07:40:46;;;;;;;13.43;12.27;;;31.30;77.70;;;;;;5000188;28;20526;-55
2021/06/18 07:43:21;;;;;;;12.63;11.60;;;31.20;81.50;;;;;;4999972;28;20461;-53
2021/06/18 07:45:52;;;;;;;13.53;12.13;;;31.60;76.90;;;;;;4999746;28;20562;-50
2021/06/18 07:48:19;;;;;;;15.90;11.67;;;32.20;73.40;;;;;;4999193;28;20513;-55
2021/06/18 07:50:46;;;;;;;16.00;11.40;;;32.50;71.80;;;;;;4999880;28;20472;-51
2021/06/18 07:53:14;;;;;;;13.07;12.00;;;32.60;67.80;;;;;;5000083;28;20515;-53
2021/06/18 07:55:42;;;;;;;13.83;12.53;;;32.60;67.70;;;;;;4997077;28;20469;-50
2021/06/18 07:58:10;;;;;;;12.80;11.70;;;32.90;67.50;;;;;;4998179;28;20794;-48
2021/06/18 08:00:38;;;;;;;13.70;10.47;;;33.20;68.20;;;;;;4998468;28;20504;-53
2021/06/18 08:03:06;;;;;;;12.30;11.23;;;33.30;65.20;;;;;;4994081;28;20481;-55
2021/06/18 08:05:33;;;;;;;13.80;11.57;;;33.20;64.30;;;;;;4995056;28;20479;-53
2021/06/18 08:08:01;;;;;;;9.73;8.83;;;32.60;63.20;;;;;;4998801;28;20862;-54
2021/06/18 08:10:28;;;;;;;12.27;10.60;;;33.10;70.40;;;;;;4979601;28;20454;-47
2021/06/18 08:12:55;;;;;;;10.13;9.13;;;33.60;64.00;;;;;;4984985;28;20467;-47
2021/06/18 08:15:22;;;;;;;10.43;9.60;;;32.80;60.70;;;;;;4998430;28;20460;-47
2021/06/18 08:17:51;;;;;;;13.50;10.03;;;33.20;64.20;;;;;;4998677;28;20464;-53
2021/06/18 08:20:20;;;;;;;10.53;9.20;;;33.20;57.50;;;;;;4999599;28;20495;-50
2021/06/18 08:22:48;;;;;;;11.23;10.10;;;33.30;59.60;;;;;;4999318;28;20468;-52
2021/06/18 08:25:15;;;;;;;9.37;8.47;;;33.70;58.90;;;;;;4998922;28;20563;-50
2021/06/18 08:27:42;;;;;;;9.87;8.90;;;34.20;56.40;;;;;;4998872;28;20468;-50
2021/06/18 08:30:12;;;;;;;10.00;9.10;;;33.60;56.40;;;;;;4998845;28;20538;-47
2021/06/18 08:32:39;;;;;;;9.47;8.43;;;32.60;58.20;;;;;;4999388;28;20901;-53
2021/06/18 08:35:09;;;;;;;8.73;8.03;;;33.60;67.70;;;;;;4999301;28;20809;-53
2021/06/18 08:37:36;;;;;;;8.00;7.43;;;34.30;57.60;;;;;;4999063;28;20471;-50
2021/06/18 08:40:03;;;;;;;12.33;8.47;;;35.10;55.60;;;;;;4997646;28;20483;-51
2021/06/18 08:42:33;;;;;;;10.60;9.60;;;35.00;58.90;;;;;;4999228;28;20472;-53
2021/06/18 08:45:00;;;;;;;9.33;7.70;;;34.80;53.50;;;;;;4997768;28;20535;-50
2021/06/18 08:47:28;;;;;;;8.70;6.50;;;35.00;52.10;;;;;;4998735;28;20864;-47
2021/06/18 08:49:55;;;;;;;10.33;7.67;;;35.30;51.60;;;;;;4998896;28;20753;-49
2021/06/18 08:52:24;;;;;;;9.93;7.93;;;35.90;48.60;;;;;;4999086;28;20443;-48
2021/06/18 08:54:54;;;;;;;13.63;8.57;;;35.50;50.80;;;;;;4998978;28;20476;-53
2021/06/18 08:57:23;;;;;;;11.57;7.60;;;36.00;47.90;;;;;;4998466;28;20936;-51
2021/06/18 08:59:51;;;;;;;11.37;7.70;;;36.00;47.80;;;;;;4997634;28;20471;-53
2021/06/18 09:02:19;;;;;;;11.17;8.33;;;35.00;48.60;;;;;;4998593;28;20467;-51
2021/06/18 09:05:10;;;;;;;9.17;8.30;;;35.10;48.20;;;;;;4989685;28;20794;-51
2021/06/18 09:07:53;;;;;;;12.30;8.30;;;34.30;48.10;;;;;;4997863;28;20557;-46
2021/06/18 09:10:39;;;;;;;13.60;7.93;;;33.80;49.00;;;;;;4998235;28;20475;-51
2021/06/18 09:13:15;;;;;;;9.23;8.43;;;33.10;48.60;;;;;;4998777;28;20522;-46
2021/06/18 09:15:49;;;;;;;8.63;7.50;;;32.70;48.70;;;;;;4998405;28;20775;-49
2021/06/18 09:18:38;;;;;;;12.60;8.00;;;32.40;49.50;;;;;;4998397;28;20472;-54
2021/06/18 09:21:23;;;;;;;9.47;6.90;;;32.40;50.60;;;;;;4997599;28;20491;-52
2021/06/18 09:23:55;;;;;;;11.30;8.23;;;31.70;51.20;;;;;;4997789;28;20530;-55
2021/06/18 09:26:33;;;;;;;7.80;7.00;;;32.10;52.10;;;;;;4978651;28;20918;-53
2021/06/18 09:29:14;;;;;;;11.13;8.27;;;32.70;51.00;;;;;;4988015;28;20460;-52
2021/06/18 09:31:47;;;;;;;9.40;7.37;;;32.40;49.80;;;;;;4995347;28;20567;-52
2021/06/18 09:34:16;;;;;;;8.27;7.33;;;32.20;50.70;;;;;;4996473;28;20464;-47
2021/06/18 09:36:45;;;;;;;7.20;6.50;;;31.70;50.60;;;;;;4987192;28;20442;-53
2021/06/18 09:39:16;;;;;;;9.57;7.70;;;31.70;50.60;;;;;;4994522;28;20439;-49
2021/06/18 09:41:45;;;;;;;11.83;8.13;;;31.60;50.90;;;;;;4996249;28;20514;-52
2021/06/18 09:44:15;;;;;;;9.43;7.83;;;31.80;51.50;;;;;;4997457;28;20492;-52
2021/06/18 09:46:51;;;;;;;13.33;7.93;;;31.80;50.50;;;;;;4996737;28;20475;-54
2021/06/18 09:49:40;;;;;;;8.07;6.53;;;31.80;52.30;;;;;;4998001;28;20464;-56
2021/06/18 09:52:09;;;;;;;10.87;7.60;;;31.50;51.20;;;;;;4997100;28;20471;-50
2021/06/18 09:54:45;;;;;;;13.40;8.40;;;31.30;51.30;;;;;;4997717;28;20444;-53
2021/06/18 09:57:14;;;;;;;10.00;7.63;;;31.60;52.60;;;;;;4997123;28;20460;-51
2021/06/18 09:59:57;;;;;;;11.80;7.33;;;31.80;51.80;;;;;;4997573;28;20511;-50
2021/06/18 10:02:39;;;;;;;12.40;7.17;;;31.90;51.30;;;;;;4996821;28;20793;-51
2021/06/18 10:05:08;;;;;;;10.30;7.50;;;31.80;51.10;;;;;;4991879;28;20544;-51
2021/06/18 10:07:38;;;;;;;16.80;7.90;;;31.90;50.50;;;;;;4995414;28;20492;-54
2021/06/18 10:10:11;;;;;;;12.03;7.10;;;32.00;51.70;;;;;;4997058;28;20464;-49
2021/06/18 10:12:39;;;;;;;9.07;6.27;;;32.10;51.00;;;;;;5000038;28;20465;-57
2021/06/18 10:15:08;;;;;;;8.83;5.90;;;32.10;47.90;;;;;;5000104;28;20807;-54
2021/06/18 10:17:38;;;;;;;9.97;6.83;;;32.10;47.60;;;;;;4999675;28;20523;-56
2021/06/18 10:20:08;;;;;;;9.07;5.83;;;32.20;45.80;;;;;;5000804;28;20893;-53
2021/06/18 10:22:39;;;;;;;9.73;5.60;;;32.30;46.30;;;;;;4999718;28;20488;-54
2021/06/18 10:25:12;;;;;;;11.73;5.90;;;32.30;47.20;;;;;;5000657;28;20468;-50
2021/06/18 10:27:46;;;;;;;7.83;5.60;;;32.30;43.90;;;;;;5001003;28;20527;-54
2021/06/18 10:30:28;;;;;;;8.53;5.80;;;32.20;45.30;;;;;;5001235;28;20917;-54
2021/06/18 10:32:57;;;;;;;9.83;6.00;;;32.10;47.40;;;;;;5001102;28;20917;-50
2021/06/18 10:35:48;;;;;;;12.13;6.00;;;32.20;48.20;;;;;;5001348;28;20892;-52
2021/06/18 11:16:41;;;;;;;10.10;6.40;;;36.30;44.10;;;;;;5153735;23;21018;-57
2021/06/18 11:19:29;;;;;;;7.60;5.93;;;36.40;44.20;;;;;;4998146;28;20892;-49
2021/06/18 11:21:57;;;;;;;10.10;5.80;;;36.90;43.40;;;;;;4998298;28;20492;-49
2021/06/18 11:24:34;;;;;;;6.97;5.53;;;37.10;40.10;;;;;;4998126;28;20905;-52
2021/06/18 11:27:25;;;;;;;9.80;5.87;;;37.30;40.80;;;;;;4998817;28;20479;-50
2021/06/18 11:30:29;;;;;;;8.90;5.73;;;37.50;40.40;;;;;;4999052;28;20853;-49
2021/06/18 11:32:58;;;;;;;8.97;6.23;;;37.30;39.70;;;;;;4999561;28;20216;-54
2021/06/18 11:35:41;;;;;;;6.63;5.23;;;37.00;39.60;;;;;;4991651;28;20221;-50
2021/06/18 11:38:15;;;;;;;9.80;5.78;;;37.10;39.50;;;;;;5000095;28;20438;-53
2021/06/18 11:40:42;;;;;;;7.80;5.53;;;37.00;39.50;;;;;;4999747;28;20313;-52
2021/06/18 11:43:10;;;;;;;6.43;5.57;;;37.30;38.90;;;;;;4999920;28;20225;-54
2021/06/18 11:45:41;;;;;;;7.68;5.97;;;37.60;37.20;;;;;;4999736;28;20449;-53
2021/06/18 11:48:21;;;;;;;6.43;5.00;;;37.30;36.20;;;;;;5000423;28;20439;-55
2021/06/18 11:50:51;;;;;;;10.70;5.00;;;37.10;36.40;;;;;;4999544;28;20470;-51
2021/06/18 11:53:21;;;;;;;5.73;4.87;;;37.00;36.10;;;;;;4999289;28;20468;-52
2021/06/18 11:55:57;;;;;;;9.50;5.63;;;37.10;36.80;;;;;;4999520;28;20472;-53
2021/06/18 11:58:31;;;;;;;8.27;6.10;;;37.80;36.80;;;;;;4999775;28;20228;-52
2021/06/18 12:00:59;;;;;;;7.05;5.53;;;37.90;37.90;;;;;;4999212;28;20233;-57
2021/06/18 12:03:35;;;;;;;6.68;5.30;;;37.50;36.30;;;;;;4992271;28;20226;-55
2021/06/18 12:06:17;;;;;;;10.03;4.77;;;36.90;36.60;;;;;;4995874;28;20213;-54
2021/06/18 12:09:01;;;;;;;8.33;5.13;;;37.00;35.00;;;;;;4998319;28;20460;-51
2021/06/18 12:11:33;;;;;;;7.68;4.60;;;37.40;34.20;;;;;;4999522;28;20209;-50
2021/06/18 12:14:00;;;;;;;5.40;4.90;;;37.80;33.90;;;;;;4998275;28;20209;-56
2021/06/18 12:16:29;;;;;;;10.13;4.70;;;38.00;34.30;;;;;;4999202;28;20244;-52
2021/06/18 12:19:16;;;;;;;8.60;5.30;;;38.50;33.30;;;;;;4998375;28;20269;-57
2021/06/18 12:21:55;;;;;;;4.50;3.72;;;38.70;32.50;;;;;;4993477;28;20522;-54
2021/06/18 12:24:28;;;;;;;6.30;4.60;;;38.60;30.50;;;;;;4999325;28;20474;-53
2021/06/18 12:26:59;;;;;;;5.28;4.72;;;38.70;33.50;;;;;;4998967;28;20599;-54
2021/06/18 12:29:28;;;;;;;6.40;4.45;;;38.90;33.20;;;;;;4990741;28;20526;-55
2021/06/18 12:31:56;;;;;;;6.43;4.47;;;39.00;30.70;;;;;;4998516;28;20201;-53
2021/06/18 12:34:25;;;;;;;7.93;5.03;;;38.90;29.90;;;;;;4998495;28;20213;-52
2021/06/18 12:37:00;;;;;;;5.85;4.57;;;38.90;30.20;;;;;;4998094;28;20220;-57
2021/06/18 12:39:28;;;;;;;5.30;4.97;;;39.00;29.50;;;;;;4998103;28;20215;-58
2021/06/18 12:41:55;;;;;;;5.07;4.60;;;38.90;30.40;;;;;;4997615;28;20232;-59
2021/06/18 12:44:37;;;;;;;5.63;4.68;;;38.80;30.70;;;;;;4997394;28;20209;-58
2021/06/18 12:47:09;;;;;;;5.78;4.70;;;38.70;30.70;;;;;;4998804;28;20459;-59
2021/06/18 12:49:38;;;;;;;7.13;4.40;;;38.60;31.00;;;;;;4991819;28;20216;-55
2021/06/18 12:52:11;;;;;;;6.57;5.40;;;38.60;32.80;;;;;;4998770;28;20213;-57
2021/06/18 12:54:38;;;;;;;5.57;4.63;;;39.20;31.10;;;;;;4998442;28;20217;-54
2021/06/18 12:57:23;;;;;;;7.78;5.20;;;39.40;31.50;;;;;;4998602;28;20213;-56
2021/06/18 13:00:02;;;;;;;6.07;4.75;;;39.40;30.70;;;;;;4998429;28;20275;-53
2021/06/18 13:02:36;;;;;;;5.93;5.35;;;39.10;31.70;;;;;;4995329;28;20245;-53
2021/06/18 13:05:17;;;;;;;7.55;4.85;;;39.40;31.10;;;;;;4989090;28;20231;-55
2021/06/18 13:07:47;;;;;;;6.72;5.03;;;39.10;30.30;;;;;;4997750;28;20209;-55
2021/06/18 13:10:14;;;;;;;5.90;5.30;;;38.80;31.50;;;;;;4998018;28;20597;-55
2021/06/18 13:12:41;;;;;;;6.32;5.43;;;38.50;30.40;;;;;;4998094;28;20300;-54
2021/06/18 13:15:10;;;;;;;5.82;5.35;;;38.70;31.30;;;;;;4998430;28;20213;-57
2021/06/18 13:17:53;;;;;;;6.35;5.35;;;39.10;31.10;;;;;;4998328;28;20515;-49
2021/06/18 13:20:33;;;;;;;8.15;5.78;;;38.70;30.80;;;;;;4998165;28;20228;-54
2021/06/18 13:23:00;;;;;;;5.93;5.32;;;38.40;30.90;;;;;;4997588;28;20241;-57
2021/06/18 13:25:32;;;;;;;6.57;4.85;;;38.10;31.30;;;;;;4990260;28;20279;-55
2021/06/18 13:28:03;;;;;;;5.60;5.10;;;38.10;30.90;;;;;;4997771;28;20212;-53